NCAR-RAP Real-Time Weather Data

Output produced by METARs form (12 May 2021  12:16 UTC)
found at http://weather.rap.ucar.edu/surface/
 
KLIC 121207Z AUTO 18008KT 10SM FEW007 OVC030 03/02 A3031 RMK AO2 T00330022
KLIC 121155Z AUTO 18009KT 10SM FEW009 OVC029 04/02 A3031 RMK AO2 SLP259 60000 70017 T00390022 10039 20033 53002
KLIC 121141Z AUTO 19010KT 10SM SCT009 OVC028 04/02 A3031 RMK AO2 T00390022
KLIC 121127Z AUTO 19011KT 10SM BKN009 BKN013 OVC028 04/02 A3031 RMK AO2 CIG 007V011 T00390022
KLIC 121059Z AUTO 18008KT 10SM FEW008 OVC015 04/02 A3031 RMK AO2 T00390022
KLIC 121055Z AUTO 18008KT 10SM OVC015 04/02 A3031 RMK AO2 SLP259 T00390022
KLIC 121046Z AUTO 19009KT 10SM SCT007 OVC013 03/02 A3031 RMK AO2 T00330022
KLIC 121006Z AUTO 15010KT 10SM BKN007 BKN015 OVC023 03/02 A3030 RMK AO2 CIG 006V010 T00330022
KLIC 120955Z AUTO 16008KT 10SM FEW007 SCT015 BKN023 03/02 A3030 RMK AO2 SLP256 T00330017
KLIC 120935Z AUTO 17009KT 10SM SCT006 OVC021 03/02 A3030 RMK AO2 T00330022
KLIC 120921Z AUTO 17008KT 10SM BKN005 OVC018 03/02 A3030 RMK AO2 CIG 003V008 T00330022
KLIC 120911Z AUTO 17007KT 10SM OVC004 03/02 A3030 RMK AO2 CIG 003V008 T00330022
KLIC 120855Z AUTO 15009KT 10SM BKN005 OVC037 03/02 A3030 RMK AO2 SLP256 60000 T00330022 58009
KLIC 120841Z AUTO 16007KT 10SM BKN006 OVC036 03/02 A3030 RMK AO2 T00330022
KLIC 120834Z AUTO 16006KT 10SM SCT008 BKN015 OVC035 03/02 A3030 RMK AO2 T00330022
KLIC 120827Z AUTO 15006KT 10SM BKN008 BKN015 OVC035 04/02 A3030 RMK AO2 T00390022
KLIC 120818Z AUTO 17006KT 10SM BKN010 OVC015 03/02 A3031 RMK AO2 CIG 006V013 T00330022
KLIC 120803Z AUTO 16008KT 10SM OVC008 04/02 A3031 RMK AO2 CIG 004V013 T00390022
KLIC 120755Z AUTO 16006KT 10SM OVC010 04/02 A3031 RMK AO2 CIG 004V013 SLP261 T00390022
KLIC 120704Z AUTO 15004KT 10SM BKN008 OVC035 03/02 A3033 RMK AO2 CIG 004V010 T00330022
KLIC 120655Z AUTO 15005KT 10SM SCT008 OVC035 03/02 A3033 RMK AO2 RAE01 SLP270 P0000 T00330022 400440000
KLIC 120639Z AUTO 15006KT 10SM SCT007 OVC037 03/02 A3033 RMK AO2 RAE01 P0000 T00330022
KLIC 120612Z AUTO 13006KT 10SM BKN032 OVC039 03/02 A3033 RMK AO2 RAE01 P0000 T00330022
KLIC 120555Z AUTO 12006KT 9SM -RA SCT024 BKN029 OVC034 04/03 A3033 RMK AO2 RAB33 SLP270 P0000 60000 T00390028 10044 20033 56001
KLIC 120455Z AUTO 15005KT 10SM FEW010 BKN015 OVC027 04/02 A3033 RMK AO2 SLP270 T00390022
KLIC 120450Z AUTO 17004KT 10SM FEW011 BKN015 OVC027 04/02 A3033 RMK AO2
KLIC 120432Z AUTO 18005KT 10SM SCT005 BKN011 OVC025 04/02 A3033 RMK AO2 T00390022
KLIC 120413Z AUTO 15006KT 10SM BKN005 OVC011 04/02 A3034 RMK AO2 T00390022
KLIC 120355Z AUTO 18005KT 10SM OVC007 03/02 A3033 RMK AO2 CIG 004V011 SLP276 T00330022
KLIC 120317Z AUTO 16005KT 10SM OVC009 04/02 A3033 RMK AO2 CIG 007V012 T00390017
KLIC 120255Z AUTO 15005KT 10SM OVC010 04/02 A3032 RMK AO2 CIG 007V014 SLP271 T00390017 53015
KLIC 120222Z AUTO 14007KT 10SM BKN009 OVC014 04/02 A3031 RMK AO2 CIG 009V013 T00390017
KLIC 120155Z AUTO 15007KT 10SM OVC010 04/02 A3030 RMK AO2 CIG 009V014 SLP264 T00390017
KLIC 120055Z AUTO 15007KT 10SM OVC010 04/02 A3028 RMK AO2 SLP256 T00390017
KLIC 120002Z AUTO 13004KT 10SM BKN010 OVC015 04/02 A3027 RMK AO2 T00390017
KLIC 112355Z AUTO 14004KT 10SM BKN009 OVC047 04/02 A3027 RMK AO2 RAE47 SLP253 P0003 60011 T00390017 10044 20028 51016
KLIC 112323Z AUTO 20004KT 10SM -RA OVC009 04/02 A3027 RMK AO2 P0003 T00390017
KLIC 112305Z AUTO 16006KT 7SM -RA BKN010 OVC016 03/01 A3026 RMK AO2 P0001 T00330011
KLIC 112255Z AUTO 22004KT 7SM -RA SCT010 OVC016 04/02 A3026 RMK AO2 RAB06 SLP250 P0007 T00390017